sensor_id;sensor_type;location;lat;lon;timestamp;P1;durP1;ratioP1;P2;durP2;ratioP2
15466;SDS011;7834;49.452;11.056;2023-06-22T00:01:53;10.73;;;9.63;;
15466;SDS011;7834;49.452;11.056;2023-06-22T00:04:19;10.97;;;9.43;;
15466;SDS011;7834;49.452;11.056;2023-06-22T00:06:45;11.65;;;9.70;;
15466;SDS011;7834;49.452;11.056;2023-06-22T00:09:11;13.02;;;9.50;;
15466;SDS011;7834;49.452;11.056;2023-06-22T00:11:37;12.07;;;9.97;;
15466;SDS011;7834;49.452;11.056;2023-06-22T00:14:04;11.88;;;9.48;;
15466;SDS011;7834;49.452;11.056;2023-06-22T00:16:33;10.93;;;9.40;;
15466;SDS011;7834;49.452;11.056;2023-06-22T00:18:59;11.10;;;9.07;;
15466;SDS011;7834;49.452;11.056;2023-06-22T00:21:27;11.40;;;9.48;;
15466;SDS011;7834;49.452;11.056;2023-06-22T00:23:53;11.18;;;9.05;;
15466;SDS011;7834;49.452;11.056;2023-06-22T00:26:19;10.85;;;8.70;;
15466;SDS011;7834;49.452;11.056;2023-06-22T00:28:46;11.70;;;9.27;;
15466;SDS011;7834;49.452;11.056;2023-06-22T00:31:12;10.30;;;9.20;;
15466;SDS011;7834;49.452;11.056;2023-06-22T00:33:38;9.90;;;8.90;;
15466;SDS011;7834;49.452;11.056;2023-06-22T00:36:04;10.07;;;8.85;;
15466;SDS011;7834;49.452;11.056;2023-06-22T00:38:32;9.68;;;8.07;;
15466;SDS011;7834;49.452;11.056;2023-06-22T00:40:58;9.73;;;8.60;;
15466;SDS011;7834;49.452;11.056;2023-06-22T00:43:24;9.13;;;8.23;;
15466;SDS011;7834;49.452;11.056;2023-06-22T00:45:50;10.02;;;8.40;;
15466;SDS011;7834;49.452;11.056;2023-06-22T00:48:17;9.13;;;8.23;;
15466;SDS011;7834;49.452;11.056;2023-06-22T00:50:43;10.13;;;8.95;;
15466;SDS011;7834;49.452;11.056;2023-06-22T00:53:09;9.15;;;8.18;;
15466;SDS011;7834;49.452;11.056;2023-06-22T00:55:45;9.02;;;8.07;;
15466;SDS011;7834;49.452;11.056;2023-06-22T00:58:12;9.43;;;8.32;;
15466;SDS011;7834;49.452;11.056;2023-06-22T01:00:41;9.15;;;8.25;;
15466;SDS011;7834;49.452;11.056;2023-06-22T01:03:07;9.13;;;8.23;;
15466;SDS011;7834;49.452;11.056;2023-06-22T01:05:34;9.68;;;8.55;;
15466;SDS011;7834;49.452;11.056;2023-06-22T01:08:03;9.25;;;8.30;;
15466;SDS011;7834;49.452;11.056;2023-06-22T01:13:57;9.75;;;8.75;;
15466;SDS011;7834;49.452;11.056;2023-06-22T01:18:57;10.60;;;9.27;;
15466;SDS011;7834;49.452;11.056;2023-06-22T01:21:27;9.63;;;8.70;;
15466;SDS011;7834;49.452;11.056;2023-06-22T01:29:01;9.48;;;7.70;;
15466;SDS011;7834;49.452;11.056;2023-06-22T01:31:28;8.53;;;7.70;;
15466;SDS011;7834;49.452;11.056;2023-06-22T01:33:57;8.68;;;7.78;;
15466;SDS011;7834;49.452;11.056;2023-06-22T01:36:23;8.60;;;7.70;;
15466;SDS011;7834;49.452;11.056;2023-06-22T01:38:50;9.55;;;8.13;;
15466;SDS011;7834;49.452;11.056;2023-06-22T01:41:18;9.23;;;8.32;;
15466;SDS011;7834;49.452;11.056;2023-06-22T01:43:45;10.02;;;8.50;;
15466;SDS011;7834;49.452;11.056;2023-06-22T01:46:11;9.32;;;8.13;;
15466;SDS011;7834;49.452;11.056;2023-06-22T01:48:38;9.32;;;8.25;;
15466;SDS011;7834;49.452;11.056;2023-06-22T01:51:04;10.57;;;8.30;;
15466;SDS011;7834;49.452;11.056;2023-06-22T01:53:30;10.45;;;8.25;;
15466;SDS011;7834;49.452;11.056;2023-06-22T01:55:56;9.07;;;8.18;;
15466;SDS011;7834;49.452;11.056;2023-06-22T01:58:24;9.13;;;8.13;;
15466;SDS011;7834;49.452;11.056;2023-06-22T02:01:10;9.40;;;8.50;;
15466;SDS011;7834;49.452;11.056;2023-06-22T02:03:43;9.20;;;8.20;;
15466;SDS011;7834;49.452;11.056;2023-06-22T02:06:13;9.40;;;8.40;;
15466;SDS011;7834;49.452;11.056;2023-06-22T02:08:41;9.18;;;8.27;;
15466;SDS011;7834;49.452;11.056;2023-06-22T02:11:09;9.55;;;8.25;;
15466;SDS011;7834;49.452;11.056;2023-06-22T02:13:36;10.35;;;8.32;;
15466;SDS011;7834;49.452;11.056;2023-06-22T02:16:07;9.85;;;8.52;;
15466;SDS011;7834;49.452;11.056;2023-06-22T02:18:33;10.15;;;9.00;;
15466;SDS011;7834;49.452;11.056;2023-06-22T02:21:01;10.30;;;9.20;;
15466;SDS011;7834;49.452;11.056;2023-06-22T02:23:27;9.82;;;8.70;;
15466;SDS011;7834;49.452;11.056;2023-06-22T02:25:53;10.38;;;9.32;;
15466;SDS011;7834;49.452;11.056;2023-06-22T02:28:19;12.33;;;9.40;;
15466;SDS011;7834;49.452;11.056;2023-06-22T02:30:45;11.68;;;9.20;;
15466;SDS011;7834;49.452;11.056;2023-06-22T02:33:11;10.27;;;9.20;;
15466;SDS011;7834;49.452;11.056;2023-06-22T02:35:37;9.88;;;8.55;;
15466;SDS011;7834;49.452;11.056;2023-06-22T02:38:04;9.88;;;8.45;;
15466;SDS011;7834;49.452;11.056;2023-06-22T02:40:30;9.68;;;8.70;;
15466;SDS011;7834;49.452;11.056;2023-06-22T02:42:57;10.60;;;8.13;;
15466;SDS011;7834;49.452;11.056;2023-06-22T02:45:26;9.95;;;8.85;;
15466;SDS011;7834;49.452;11.056;2023-06-22T02:47:52;8.60;;;7.70;;
15466;SDS011;7834;49.452;11.056;2023-06-22T02:50:18;8.88;;;7.80;;
15466;SDS011;7834;49.452;11.056;2023-06-22T02:52:44;8.82;;;7.93;;
15466;SDS011;7834;49.452;11.056;2023-06-22T02:55:10;9.02;;;8.20;;
15466;SDS011;7834;49.452;11.056;2023-06-22T02:57:36;11.23;;;9.13;;
15466;SDS011;7834;49.452;11.056;2023-06-22T03:00:03;9.70;;;8.70;;
15466;SDS011;7834;49.452;11.056;2023-06-22T03:02:43;10.00;;;9.02;;
15466;SDS011;7834;49.452;11.056;2023-06-22T03:05:09;10.95;;;9.55;;
15466;SDS011;7834;49.452;11.056;2023-06-22T03:07:38;11.50;;;10.30;;
15466;SDS011;7834;49.452;11.056;2023-06-22T03:10:04;12.73;;;11.27;;
15466;SDS011;7834;49.452;11.056;2023-06-22T03:12:30;11.95;;;10.75;;
15466;SDS011;7834;49.452;11.056;2023-06-22T03:14:56;12.25;;;11.00;;
15466;SDS011;7834;49.452;11.056;2023-06-22T03:17:23;12.18;;;10.90;;
15466;SDS011;7834;49.452;11.056;2023-06-22T03:19:49;11.73;;;10.52;;
15466;SDS011;7834;49.452;11.056;2023-06-22T03:22:15;11.55;;;10.35;;
15466;SDS011;7834;49.452;11.056;2023-06-22T03:24:41;12.15;;;10.95;;
15466;SDS011;7834;49.452;11.056;2023-06-22T03:27:07;12.82;;;11.50;;
15466;SDS011;7834;49.452;11.056;2023-06-22T03:29:33;12.43;;;11.23;;
15466;SDS011;7834;49.452;11.056;2023-06-22T03:31:59;12.75;;;11.45;;
15466;SDS011;7834;49.452;11.056;2023-06-22T03:34:25;12.50;;;11.20;;
15466;SDS011;7834;49.452;11.056;2023-06-22T03:36:51;13.27;;;10.80;;
15466;SDS011;7834;49.452;11.056;2023-06-22T03:39:17;11.98;;;10.77;;
15466;SDS011;7834;49.452;11.056;2023-06-22T03:41:43;12.45;;;11.15;;
15466;SDS011;7834;49.452;11.056;2023-06-22T03:44:09;11.70;;;10.48;;
15466;SDS011;7834;49.452;11.056;2023-06-22T03:46:37;11.77;;;10.68;;
15466;SDS011;7834;49.452;11.056;2023-06-22T03:49:03;12.00;;;10.80;;
15466;SDS011;7834;49.452;11.056;2023-06-22T03:51:30;12.18;;;10.90;;
15466;SDS011;7834;49.452;11.056;2023-06-22T03:53:56;11.35;;;10.25;;
15466;SDS011;7834;49.452;11.056;2023-06-22T03:56:22;12.20;;;11.00;;
15466;SDS011;7834;49.452;11.056;2023-06-22T03:58:48;12.90;;;10.82;;
15466;SDS011;7834;49.452;11.056;2023-06-22T04:01:15;12.18;;;10.88;;
15466;SDS011;7834;49.452;11.056;2023-06-22T04:03:42;11.88;;;10.65;;
15466;SDS011;7834;49.452;11.056;2023-06-22T04:06:08;11.48;;;10.30;;
15466;SDS011;7834;49.452;11.056;2023-06-22T04:08:34;11.37;;;10.17;;
15466;SDS011;7834;49.452;11.056;2023-06-22T04:11:00;10.55;;;9.40;;
15466;SDS011;7834;49.452;11.056;2023-06-22T04:13:26;10.45;;;9.27;;
15466;SDS011;7834;49.452;11.056;2023-06-22T04:15:52;12.15;;;9.48;;
15466;SDS011;7834;49.452;11.056;2023-06-22T04:18:18;10.05;;;9.15;;
15466;SDS011;7834;49.452;11.056;2023-06-22T04:20:44;11.15;;;9.15;;
15466;SDS011;7834;49.452;11.056;2023-06-22T04:23:12;9.93;;;8.93;;
15466;SDS011;7834;49.452;11.056;2023-06-22T04:25:38;12.23;;;9.07;;
15466;SDS011;7834;49.452;11.056;2023-06-22T04:28:04;10.10;;;9.05;;
15466;SDS011;7834;49.452;11.056;2023-06-22T04:30:32;10.30;;;9.13;;
15466;SDS011;7834;49.452;11.056;2023-06-22T04:32:58;9.75;;;8.63;;
15466;SDS011;7834;49.452;11.056;2023-06-22T04:35:25;9.98;;;8.98;;
15466;SDS011;7834;49.452;11.056;2023-06-22T04:37:52;9.27;;;8.48;;
15466;SDS011;7834;49.452;11.056;2023-06-22T04:40:21;9.63;;;8.70;;
15466;SDS011;7834;49.452;11.056;2023-06-22T04:42:47;10.65;;;9.20;;
15466;SDS011;7834;49.452;11.056;2023-06-22T04:45:18;9.80;;;8.70;;
15466;SDS011;7834;49.452;11.056;2023-06-22T04:47:44;11.05;;;9.23;;
15466;SDS011;7834;49.452;11.056;2023-06-22T04:50:11;11.03;;;9.23;;
15466;SDS011;7834;49.452;11.056;2023-06-22T04:52:37;10.10;;;9.07;;
15466;SDS011;7834;49.452;11.056;2023-06-22T04:55:03;11.60;;;9.47;;
15466;SDS011;7834;49.452;11.056;2023-06-22T04:57:29;10.23;;;9.02;;
15466;SDS011;7834;49.452;11.056;2023-06-22T05:00:01;10.23;;;9.23;;
15466;SDS011;7834;49.452;11.056;2023-06-22T05:02:38;12.20;;;9.10;;
15466;SDS011;7834;49.452;11.056;2023-06-22T05:05:04;10.85;;;8.73;;
15466;SDS011;7834;49.452;11.056;2023-06-22T05:07:34;10.00;;;9.00;;
15466;SDS011;7834;49.452;11.056;2023-06-22T05:10:01;10.80;;;8.75;;
15466;SDS011;7834;49.452;11.056;2023-06-22T05:12:28;12.18;;;9.02;;
15466;SDS011;7834;49.452;11.056;2023-06-22T05:14:54;11.73;;;9.30;;
15466;SDS011;7834;49.452;11.056;2023-06-22T05:17:20;10.40;;;9.23;;
15466;SDS011;7834;49.452;11.056;2023-06-22T05:19:46;9.68;;;8.68;;
15466;SDS011;7834;49.452;11.056;2023-06-22T05:22:15;34.67;;;13.85;;
15466;SDS011;7834;49.452;11.056;2023-06-22T05:24:42;11.88;;;9.65;;
15466;SDS011;7834;49.452;11.056;2023-06-22T05:27:08;11.50;;;9.60;;
15466;SDS011;7834;49.452;11.056;2023-06-22T05:29:34;10.93;;;9.00;;
15466;SDS011;7834;49.452;11.056;2023-06-22T05:32:00;10.82;;;9.20;;
15466;SDS011;7834;49.452;11.056;2023-06-22T05:34:26;10.68;;;8.98;;
15466;SDS011;7834;49.452;11.056;2023-06-22T05:36:53;10.93;;;9.10;;
15466;SDS011;7834;49.452;11.056;2023-06-22T05:39:19;11.35;;;9.70;;
15466;SDS011;7834;49.452;11.056;2023-06-22T05:41:45;10.32;;;9.32;;
15466;SDS011;7834;49.452;11.056;2023-06-22T05:44:11;12.18;;;9.32;;
15466;SDS011;7834;49.452;11.056;2023-06-22T05:46:40;10.02;;;9.02;;
15466;SDS011;7834;49.452;11.056;2023-06-22T05:49:11;10.70;;;9.57;;
15466;SDS011;7834;49.452;11.056;2023-06-22T05:51:37;10.68;;;9.57;;
15466;SDS011;7834;49.452;11.056;2023-06-22T05:54:03;11.18;;;9.07;;
15466;SDS011;7834;49.452;11.056;2023-06-22T05:56:29;10.65;;;8.90;;
15466;SDS011;7834;49.452;11.056;2023-06-22T05:58:55;11.40;;;9.05;;
15466;SDS011;7834;49.452;11.056;2023-06-22T06:01:21;11.02;;;9.15;;
15466;SDS011;7834;49.452;11.056;2023-06-22T06:03:47;10.20;;;9.20;;
15466;SDS011;7834;49.452;11.056;2023-06-22T06:06:14;10.23;;;9.18;;
15466;SDS011;7834;49.452;11.056;2023-06-22T06:08:40;9.85;;;8.80;;
15466;SDS011;7834;49.452;11.056;2023-06-22T06:11:07;9.50;;;8.50;;
15466;SDS011;7834;49.452;11.056;2023-06-22T06:13:32;9.68;;;8.55;;
15466;SDS011;7834;49.452;11.056;2023-06-22T06:15:59;10.40;;;8.90;;
15466;SDS011;7834;49.452;11.056;2023-06-22T06:18:25;9.68;;;8.77;;
15466;SDS011;7834;49.452;11.056;2023-06-22T06:20:51;9.63;;;8.70;;
15466;SDS011;7834;49.452;11.056;2023-06-22T06:23:18;10.20;;;9.20;;
15466;SDS011;7834;49.452;11.056;2023-06-22T06:25:44;9.88;;;8.52;;
15466;SDS011;7834;49.452;11.056;2023-06-22T06:28:09;10.17;;;8.90;;
15466;SDS011;7834;49.452;11.056;2023-06-22T06:30:35;11.13;;;9.13;;
15466;SDS011;7834;49.452;11.056;2023-06-22T06:33:02;10.13;;;8.73;;
15466;SDS011;7834;49.452;11.056;2023-06-22T06:35:33;10.15;;;8.65;;
15466;SDS011;7834;49.452;11.056;2023-06-22T06:38:00;9.45;;;8.55;;
15466;SDS011;7834;49.452;11.056;2023-06-22T06:40:26;9.32;;;8.25;;
15466;SDS011;7834;49.452;11.056;2023-06-22T06:42:52;10.88;;;8.75;;
15466;SDS011;7834;49.452;11.056;2023-06-22T06:45:19;9.27;;;8.27;;
15466;SDS011;7834;49.452;11.056;2023-06-22T06:47:47;9.35;;;8.35;;
15466;SDS011;7834;49.452;11.056;2023-06-22T06:50:13;10.13;;;9.02;;
15466;SDS011;7834;49.452;11.056;2023-06-22T06:52:39;9.45;;;8.55;;
15466;SDS011;7834;49.452;11.056;2023-06-22T06:55:05;9.10;;;8.20;;
15466;SDS011;7834;49.452;11.056;2023-06-22T06:57:36;9.30;;;8.40;;
15466;SDS011;7834;49.452;11.056;2023-06-22T07:00:03;10.75;;;8.38;;
15466;SDS011;7834;49.452;11.056;2023-06-22T07:02:34;10.07;;;8.33;;
15466;SDS011;7834;49.452;11.056;2023-06-22T07:05:00;9.73;;;8.50;;
15466;SDS011;7834;49.452;11.056;2023-06-22T07:07:29;10.07;;;8.65;;
15466;SDS011;7834;49.452;11.056;2023-06-22T07:09:55;8.95;;;8.05;;
15466;SDS011;7834;49.452;11.056;2023-06-22T07:12:21;9.73;;;8.00;;
15466;SDS011;7834;49.452;11.056;2023-06-22T07:14:47;9.77;;;8.25;;
15466;SDS011;7834;49.452;11.056;2023-06-22T07:17:13;9.75;;;8.00;;
15466;SDS011;7834;49.452;11.056;2023-06-22T07:19:39;8.98;;;7.50;;
15466;SDS011;7834;49.452;11.056;2023-06-22T07:22:07;8.45;;;7.65;;
15466;SDS011;7834;49.452;11.056;2023-06-22T07:24:33;11.25;;;10.15;;
15466;SDS011;7834;49.452;11.056;2023-06-22T07:26:59;9.63;;;7.75;;
15466;SDS011;7834;49.452;11.056;2023-06-22T07:29:25;9.70;;;7.75;;
15466;SDS011;7834;49.452;11.056;2023-06-22T07:31:51;10.02;;;9.02;;
15466;SDS011;7834;49.452;11.056;2023-06-22T07:34:18;12.27;;;10.63;;
15466;SDS011;7834;49.452;11.056;2023-06-22T07:36:44;7.63;;;6.90;;
15466;SDS011;7834;49.452;11.056;2023-06-22T07:39:11;9.07;;;8.20;;
15466;SDS011;7834;49.452;11.056;2023-06-22T07:41:38;10.47;;;7.63;;
15466;SDS011;7834;49.452;11.056;2023-06-22T07:44:05;8.55;;;7.32;;
15466;SDS011;7834;49.452;11.056;2023-06-22T07:46:31;9.07;;;7.20;;
15466;SDS011;7834;49.452;11.056;2023-06-22T07:48:57;8.48;;;6.70;;
15466;SDS011;7834;49.452;11.056;2023-06-22T07:51:24;8.03;;;6.70;;
15466;SDS011;7834;49.452;11.056;2023-06-22T07:53:50;8.10;;;6.78;;
15466;SDS011;7834;49.452;11.056;2023-06-22T07:56:16;6.93;;;6.20;;
15466;SDS011;7834;49.452;11.056;2023-06-22T07:58:46;12.40;;;6.22;;
15466;SDS011;7834;49.452;11.056;2023-06-22T08:01:12;8.70;;;6.47;;
15466;SDS011;7834;49.452;11.056;2023-06-22T08:03:38;9.68;;;6.15;;
15466;SDS011;7834;49.452;11.056;2023-06-22T08:06:04;8.32;;;6.30;;
15466;SDS011;7834;49.452;11.056;2023-06-22T08:08:31;7.43;;;6.30;;
15466;SDS011;7834;49.452;11.056;2023-06-22T08:10:57;8.85;;;6.22;;
15466;SDS011;7834;49.452;11.056;2023-06-22T08:13:23;8.27;;;6.30;;
15466;SDS011;7834;49.452;11.056;2023-06-22T08:15:49;11.07;;;8.10;;
15466;SDS011;7834;49.452;11.056;2023-06-22T08:18:15;7.80;;;6.38;;
15466;SDS011;7834;49.452;11.056;2023-06-22T08:20:41;7.47;;;6.60;;
15466;SDS011;7834;49.452;11.056;2023-06-22T08:23:07;7.00;;;6.30;;
15466;SDS011;7834;49.452;11.056;2023-06-22T08:25:33;6.55;;;5.90;;
15466;SDS011;7834;49.452;11.056;2023-06-22T08:28:00;7.72;;;5.85;;
15466;SDS011;7834;49.452;11.056;2023-06-22T08:30:26;9.20;;;6.03;;
15466;SDS011;7834;49.452;11.056;2023-06-22T08:32:52;7.68;;;5.93;;
15466;SDS011;7834;49.452;11.056;2023-06-22T08:35:20;9.85;;;6.45;;
15466;SDS011;7834;49.452;11.056;2023-06-22T08:37:47;8.75;;;6.35;;
15466;SDS011;7834;49.452;11.056;2023-06-22T08:40:17;8.50;;;5.93;;
15466;SDS011;7834;49.452;11.056;2023-06-22T08:42:44;7.60;;;5.90;;
15466;SDS011;7834;49.452;11.056;2023-06-22T08:45:11;7.75;;;6.00;;
15466;SDS011;7834;49.452;11.056;2023-06-22T08:47:37;8.00;;;6.30;;
15466;SDS011;7834;49.452;11.056;2023-06-22T08:50:03;8.68;;;6.10;;
15466;SDS011;7834;49.452;11.056;2023-06-22T08:52:29;10.02;;;6.20;;
15466;SDS011;7834;49.452;11.056;2023-06-22T08:54:56;10.13;;;5.95;;
15466;SDS011;7834;49.452;11.056;2023-06-22T08:57:29;8.93;;;6.50;;
15466;SDS011;7834;49.452;11.056;2023-06-22T08:59:58;7.55;;;5.80;;
15466;SDS011;7834;49.452;11.056;2023-06-22T09:02:27;8.65;;;6.15;;
15466;SDS011;7834;49.452;11.056;2023-06-22T09:04:58;8.63;;;5.80;;
15466;SDS011;7834;49.452;11.056;2023-06-22T09:07:24;8.97;;;5.80;;
15466;SDS011;7834;49.452;11.056;2023-06-22T09:09:51;10.00;;;6.28;;
15466;SDS011;7834;49.452;11.056;2023-06-22T09:12:17;10.27;;;6.22;;
15466;SDS011;7834;49.452;11.056;2023-06-22T09:14:50;8.67;;;6.10;;
15466;SDS011;7834;49.452;11.056;2023-06-22T09:17:16;11.10;;;6.90;;
15466;SDS011;7834;49.452;11.056;2023-06-22T09:19:42;8.50;;;6.10;;
15466;SDS011;7834;49.452;11.056;2023-06-22T09:22:08;12.10;;;6.28;;
15466;SDS011;7834;49.452;11.056;2023-06-22T09:24:34;9.88;;;5.70;;
15466;SDS011;7834;49.452;11.056;2023-06-22T09:27:01;9.02;;;5.93;;
15466;SDS011;7834;49.452;11.056;2023-06-22T09:29:27;9.05;;;6.28;;
15466;SDS011;7834;49.452;11.056;2023-06-22T09:31:53;14.63;;;6.60;;
15466;SDS011;7834;49.452;11.056;2023-06-22T09:34:20;10.35;;;6.57;;
15466;SDS011;7834;49.452;11.056;2023-06-22T09:36:46;11.88;;;6.93;;
15466;SDS011;7834;49.452;11.056;2023-06-22T09:39:12;11.07;;;7.03;;
15466;SDS011;7834;49.452;11.056;2023-06-22T09:41:39;9.43;;;5.93;;
15466;SDS011;7834;49.452;11.056;2023-06-22T09:44:05;8.05;;;6.18;;
15466;SDS011;7834;49.452;11.056;2023-06-22T09:46:31;9.32;;;6.22;;
15466;SDS011;7834;49.452;11.056;2023-06-22T09:48:57;12.97;;;6.30;;
15466;SDS011;7834;49.452;11.056;2023-06-22T09:51:23;12.70;;;6.97;;
15466;SDS011;7834;49.452;11.056;2023-06-22T09:53:49;12.18;;;6.88;;
15466;SDS011;7834;49.452;11.056;2023-06-22T09:56:16;12.20;;;6.18;;
15466;SDS011;7834;49.452;11.056;2023-06-22T09:58:42;9.77;;;6.85;;
15466;SDS011;7834;49.452;11.056;2023-06-22T10:01:08;11.43;;;7.00;;
15466;SDS011;7834;49.452;11.056;2023-06-22T10:03:39;8.00;;;6.47;;
15466;SDS011;7834;49.452;11.056;2023-06-22T10:06:06;9.95;;;6.95;;
15466;SDS011;7834;49.452;11.056;2023-06-22T10:08:32;10.95;;;7.03;;
15466;SDS011;7834;49.452;11.056;2023-06-22T10:10:58;12.60;;;8.20;;
15466;SDS011;7834;49.452;11.056;2023-06-22T10:13:24;11.37;;;6.60;;
15466;SDS011;7834;49.452;11.056;2023-06-22T10:15:50;9.95;;;6.75;;
15466;SDS011;7834;49.452;11.056;2023-06-22T10:18:20;10.10;;;6.97;;
15466;SDS011;7834;49.452;11.056;2023-06-22T10:20:50;12.93;;;6.97;;
15466;SDS011;7834;49.452;11.056;2023-06-22T10:23:19;8.68;;;6.63;;
15466;SDS011;7834;49.452;11.056;2023-06-22T10:25:45;9.70;;;7.22;;
15466;SDS011;7834;49.452;11.056;2023-06-22T10:28:12;11.48;;;7.22;;
15466;SDS011;7834;49.452;11.056;2023-06-22T10:30:41;11.53;;;6.70;;
15466;SDS011;7834;49.452;11.056;2023-06-22T10:33:07;13.07;;;6.75;;
15466;SDS011;7834;49.452;11.056;2023-06-22T10:35:34;12.38;;;7.05;;
15466;SDS011;7834;49.452;11.056;2023-06-22T10:38:00;11.10;;;7.90;;
15466;SDS011;7834;49.452;11.056;2023-06-22T10:40:26;8.70;;;6.80;;
15466;SDS011;7834;49.452;11.056;2023-06-22T10:42:52;13.30;;;6.80;;
15466;SDS011;7834;49.452;11.056;2023-06-22T10:45:18;13.10;;;6.72;;
15466;SDS011;7834;49.452;11.056;2023-06-22T10:47:44;13.10;;;7.40;;
15466;SDS011;7834;49.452;11.056;2023-06-22T10:50:10;11.37;;;7.20;;
15466;SDS011;7834;49.452;11.056;2023-06-22T10:52:37;13.00;;;7.60;;
15466;SDS011;7834;49.452;11.056;2023-06-22T10:55:03;11.98;;;7.07;;
15466;SDS011;7834;49.452;11.056;2023-06-22T10:57:29;11.52;;;6.53;;
15466;SDS011;7834;49.452;11.056;2023-06-22T10:59:55;12.45;;;7.30;;
15466;SDS011;7834;49.452;11.056;2023-06-22T11:02:21;9.57;;;7.00;;
15466;SDS011;7834;49.452;11.056;2023-06-22T11:04:47;11.98;;;7.15;;
15466;SDS011;7834;49.452;11.056;2023-06-22T11:07:13;13.13;;;6.90;;
15466;SDS011;7834;49.452;11.056;2023-06-22T11:09:39;12.30;;;7.25;;
15466;SDS011;7834;49.452;11.056;2023-06-22T11:12:05;11.95;;;6.80;;
15466;SDS011;7834;49.452;11.056;2023-06-22T11:14:32;10.30;;;6.90;;
15466;SDS011;7834;49.452;11.056;2023-06-22T11:17:00;12.13;;;7.00;;
15466;SDS011;7834;49.452;11.056;2023-06-22T11:19:26;9.38;;;6.70;;
15466;SDS011;7834;49.452;11.056;2023-06-22T11:21:52;11.10;;;6.80;;
15466;SDS011;7834;49.452;11.056;2023-06-22T11:24:18;12.10;;;7.47;;
15466;SDS011;7834;49.452;11.056;2023-06-22T11:26:44;12.80;;;7.32;;
15466;SDS011;7834;49.452;11.056;2023-06-22T11:29:10;14.18;;;7.25;;
15466;SDS011;7834;49.452;11.056;2023-06-22T11:31:36;12.13;;;7.20;;
15466;SDS011;7834;49.452;11.056;2023-06-22T11:34:03;10.27;;;6.95;;
15466;SDS011;7834;49.452;11.056;2023-06-22T11:36:29;10.27;;;7.17;;
15466;SDS011;7834;49.452;11.056;2023-06-22T11:38:58;15.50;;;7.40;;
15466;SDS011;7834;49.452;11.056;2023-06-22T11:41:24;13.65;;;7.63;;
15466;SDS011;7834;49.452;11.056;2023-06-22T11:43:50;12.05;;;7.15;;
15466;SDS011;7834;49.452;11.056;2023-06-22T11:46:16;13.47;;;7.50;;
15466;SDS011;7834;49.452;11.056;2023-06-22T11:48:42;12.38;;;7.50;;
15466;SDS011;7834;49.452;11.056;2023-06-22T11:51:08;15.02;;;7.40;;
15466;SDS011;7834;49.452;11.056;2023-06-22T11:53:34;11.73;;;8.10;;
15466;SDS011;7834;49.452;11.056;2023-06-22T11:56:00;12.38;;;7.97;;
15466;SDS011;7834;49.452;11.056;2023-06-22T11:58:27;12.43;;;8.15;;
15466;SDS011;7834;49.452;11.056;2023-06-22T12:00:53;12.95;;;7.75;;
15466;SDS011;7834;49.452;11.056;2023-06-22T12:03:20;13.05;;;7.55;;
15466;SDS011;7834;49.452;11.056;2023-06-22T12:05:49;13.93;;;8.10;;
15466;SDS011;7834;49.452;11.056;2023-06-22T12:08:19;10.48;;;7.45;;
15466;SDS011;7834;49.452;11.056;2023-06-22T12:10:45;11.40;;;7.53;;
15466;SDS011;7834;49.452;11.056;2023-06-22T12:13:11;12.77;;;7.78;;
15466;SDS011;7834;49.452;11.056;2023-06-22T12:15:37;12.52;;;8.07;;
15466;SDS011;7834;49.452;11.056;2023-06-22T12:18:03;13.18;;;8.00;;
15466;SDS011;7834;49.452;11.056;2023-06-22T12:20:29;11.75;;;7.70;;
15466;SDS011;7834;49.452;11.056;2023-06-22T12:22:55;15.93;;;8.10;;
15466;SDS011;7834;49.452;11.056;2023-06-22T12:25:23;13.18;;;7.80;;
15466;SDS011;7834;49.452;11.056;2023-06-22T12:27:49;13.90;;;7.70;;
15466;SDS011;7834;49.452;11.056;2023-06-22T12:30:15;12.70;;;7.97;;
15466;SDS011;7834;49.452;11.056;2023-06-22T12:32:42;14.40;;;7.85;;
15466;SDS011;7834;49.452;11.056;2023-06-22T12:35:08;12.95;;;7.97;;
15466;SDS011;7834;49.452;11.056;2023-06-22T12:37:39;19.65;;;8.13;;
15466;SDS011;7834;49.452;11.056;2023-06-22T12:40:05;11.53;;;7.57;;
15466;SDS011;7834;49.452;11.056;2023-06-22T12:42:31;11.43;;;7.68;;
15466;SDS011;7834;49.452;11.056;2023-06-22T12:44:57;14.17;;;8.03;;
15466;SDS011;7834;49.452;11.056;2023-06-22T12:47:23;13.57;;;7.78;;
15466;SDS011;7834;49.452;11.056;2023-06-22T12:49:49;12.90;;;8.57;;
15466;SDS011;7834;49.452;11.056;2023-06-22T12:52:15;12.93;;;8.10;;
15466;SDS011;7834;49.452;11.056;2023-06-22T12:54:41;12.65;;;8.20;;
15466;SDS011;7834;49.452;11.056;2023-06-22T12:57:07;15.53;;;8.50;;
15466;SDS011;7834;49.452;11.056;2023-06-22T12:59:33;13.57;;;7.90;;
15466;SDS011;7834;49.452;11.056;2023-06-22T13:01:59;15.93;;;7.90;;
15466;SDS011;7834;49.452;11.056;2023-06-22T13:04:25;13.75;;;8.30;;
15466;SDS011;7834;49.452;11.056;2023-06-22T13:06:51;12.02;;;8.07;;
15466;SDS011;7834;49.452;11.056;2023-06-22T13:09:18;12.77;;;8.05;;
15466;SDS011;7834;49.452;11.056;2023-06-22T13:11:44;13.05;;;7.82;;
15466;SDS011;7834;49.452;11.056;2023-06-22T13:14:10;13.70;;;8.20;;
15466;SDS011;7834;49.452;11.056;2023-06-22T13:16:36;15.40;;;8.00;;
15466;SDS011;7834;49.452;11.056;2023-06-22T13:19:03;13.30;;;8.25;;
15466;SDS011;7834;49.452;11.056;2023-06-22T13:21:29;11.93;;;8.25;;
15466;SDS011;7834;49.452;11.056;2023-06-22T13:23:55;12.52;;;8.18;;
15466;SDS011;7834;49.452;11.056;2023-06-22T13:26:21;13.95;;;8.32;;
15466;SDS011;7834;49.452;11.056;2023-06-22T13:28:48;12.93;;;7.90;;
15466;SDS011;7834;49.452;11.056;2023-06-22T13:31:14;13.38;;;7.93;;
15466;SDS011;7834;49.452;11.056;2023-06-22T13:33:40;12.55;;;8.15;;
15466;SDS011;7834;49.452;11.056;2023-06-22T13:36:06;15.18;;;8.40;;
15466;SDS011;7834;49.452;11.056;2023-06-22T13:38:34;13.68;;;8.35;;
15466;SDS011;7834;49.452;11.056;2023-06-22T13:41:03;14.75;;;8.15;;
15466;SDS011;7834;49.452;11.056;2023-06-22T13:43:29;12.73;;;8.00;;
15466;SDS011;7834;49.452;11.056;2023-06-22T13:45:55;12.23;;;8.27;;
15466;SDS011;7834;49.452;11.056;2023-06-22T13:48:23;16.67;;;9.07;;
15466;SDS011;7834;49.452;11.056;2023-06-22T13:50:51;15.07;;;8.85;;
15466;SDS011;7834;49.452;11.056;2023-06-22T13:53:17;13.52;;;8.15;;
15466;SDS011;7834;49.452;11.056;2023-06-22T13:55:43;15.53;;;8.50;;
15466;SDS011;7834;49.452;11.056;2023-06-22T13:58:09;14.43;;;8.63;;
15466;SDS011;7834;49.452;11.056;2023-06-22T14:00:35;15.23;;;8.27;;
15466;SDS011;7834;49.452;11.056;2023-06-22T14:03:01;12.88;;;8.18;;
15466;SDS011;7834;49.452;11.056;2023-06-22T14:05:27;15.07;;;8.70;;
15466;SDS011;7834;49.452;11.056;2023-06-22T14:07:53;19.02;;;8.77;;
15466;SDS011;7834;49.452;11.056;2023-06-22T14:10:19;13.75;;;8.27;;
15466;SDS011;7834;49.452;11.056;2023-06-22T14:12:45;14.00;;;8.27;;
15466;SDS011;7834;49.452;11.056;2023-06-22T14:15:11;14.23;;;7.90;;
15466;SDS011;7834;49.452;11.056;2023-06-22T14:17:37;13.23;;;8.10;;
15466;SDS011;7834;49.452;11.056;2023-06-22T14:20:03;15.70;;;8.05;;
15466;SDS011;7834;49.452;11.056;2023-06-22T14:22:30;14.13;;;8.15;;
15466;SDS011;7834;49.452;11.056;2023-06-22T14:24:56;14.50;;;8.25;;
15466;SDS011;7834;49.452;11.056;2023-06-22T14:27:23;14.88;;;8.80;;
15466;SDS011;7834;49.452;11.056;2023-06-22T14:29:49;17.80;;;8.65;;
15466;SDS011;7834;49.452;11.056;2023-06-22T14:32:15;16.83;;;8.70;;
15466;SDS011;7834;49.452;11.056;2023-06-22T14:34:41;14.15;;;8.80;;
15466;SDS011;7834;49.452;11.056;2023-06-22T14:37:08;14.30;;;8.77;;
15466;SDS011;7834;49.452;11.056;2023-06-22T14:39:35;17.27;;;8.75;;
15466;SDS011;7834;49.452;11.056;2023-06-22T14:42:01;16.98;;;8.68;;
15466;SDS011;7834;49.452;11.056;2023-06-22T14:44:28;17.63;;;9.00;;
15466;SDS011;7834;49.452;11.056;2023-06-22T14:46:55;16.30;;;8.82;;